Uni-arise — 3FSV7 — position and weather

sailwx.info

Track history (hours):
 
Tides and Currents Weather Stations Pressure Air Temp Water Temp Dewpoint Dewpoint Depression Visibility Wind Speed Wind Dir Waves Ship Positions

Uni-arise

Last reported at 2016-May-19 15:20 UTC. Time now 2016-May-24 17:28 UTC.
Position N 33°45' E 134°49'.

Length 165 m; draft 7.6 m.

Type: Ship (hazmat cat D). MMSI: 351608000.

Date/timePositionNaut miles runAvg speedWind from/ knotsBaromVisibWave heightAir tempDewpointWater temp
2016-May-19 15:20N 33°45' E 134°49'1316.4
2016-May-19 14:33N 33°56' E 134°56'1515.0
2016-May-19 13:33N 34°11' E 134°57'1212.5
2016-May-19 12:34N 34°23' E 135°01'1514.9
2016-May-19 11:33N 34°34' E 135°13'6 4.6
2016-May-19 10:19N 34°40' E 135°14'0 0.0
2016-May-19 09:25N 34°40' E 135°14'0 0.0
2016-May-19 08:31N 34°40' E 135°14'0 0.0
2016-May-19 07:31N 34°40' E 135°14'0 0.0
2016-May-19 06:31N 34°40' E 135°14'0 0.0
2016-May-19 05:31N 34°40' E 135°14'0 0.0
2016-May-19 04:31N 34°40' E 135°14'0 0.0
2016-May-19 03:31N 34°40' E 135°14'0 0.3
2016-May-19 02:33N 34°40' E 135°14'8 8.0
2016-May-19 01:33N 34°38' E 135°24'1 0.6
2016-May-19 00:28N 34°39' E 135°24'0 0.0
2016-May-18 23:22N 34°39' E 135°24'0 0.0
2016-May-18 22:28N 34°39' E 135°24'0 0.0
2016-May-18 21:28N 34°39' E 135°24'0 0.0
2016-May-18 20:28N 34°39' E 135°24'0 0.0
2016-May-18 19:22N 34°39' E 135°24'0 0.0
2016-May-18 18:28N 34°39' E 135°24'0 0.0
2016-May-18 17:28N 34°39' E 135°24'0 0.0
2016-May-18 16:28N 34°39' E 135°24'0 0.0
2016-May-18 15:28N 34°39' E 135°24'0 0.0
2016-May-18 14:28N 34°39' E 135°24'4 4.1
2016-May-18 13:33N 34°37' E 135°21'1414.0
2016-May-18 12:33N 34°27' E 135°08'1514.8
2016-May-18 11:34N 34°14' E 134°59'1210.8
2016-May-18 10:30N 34°03' E 134°59'  
2016-May-14 14:31N 22°51' E 119°58'1414.6
2016-May-14 13:34N 22°39' E 120°07'1111.4
2016-May-14 12:33N 22°33' E 120°18'2 0.2
2016-May-14 01:16N 22°33' E 120°20'3 4.1
2016-May-14 00:32N 22°32' E 120°17'0 0.3
2016-May-13 23:26N 22°32' E 120°17'0 0.0
2016-May-13 22:26N 22°32' E 120°17'0 0.0
2016-May-13 21:32N 22°32' E 120°17'0 0.0
2016-May-13 20:33N 22°32' E 120°17'0 0.0
2016-May-13 19:33N 22°32' E 120°17'0 0.0
2016-May-13 18:33N 22°32' E 120°17'0 0.0
2016-May-13 17:33N 22°32' E 120°17'0 0.0
2016-May-13 16:33N 22°32' E 120°17'0 0.0
2016-May-13 15:33N 22°32' E 120°17'0 0.0
2016-May-13 14:33N 22°32' E 120°17'0 0.0
2016-May-13 13:33N 22°32' E 120°17'0 0.0
2016-May-13 12:32N 22°32' E 120°17'0 0.3
2016-May-13 11:33N 22°32' E 120°16'9 9.3
2016-May-13 10:33N 22°32' E 120°06'33314.2
2016-May-12 11:06N 22°17' E 114°06'3 5.7
2016-May-12 10:33N 22°20' E 114°08'0 0.0
2016-May-12 09:33N 22°20' E 114°08'0 0.0
2016-May-12 08:33N 22°20' E 114°08'0 0.0
2016-May-12 07:33N 22°20' E 114°08'0 0.0
2016-May-12 05:33N 22°20' E 114°08'0 0.0
2016-May-12 04:33N 22°20' E 114°08'0 0.0
2016-May-12 03:33N 22°20' E 114°08'0 0.0
2016-May-12 02:33N 22°20' E 114°08'0 0.0
2016-May-12 01:30N 22°20' E 114°08'0 0.0
2016-May-12 00:33N 22°20' E 114°08'0 0.0
2016-May-11 23:21N 22°20' E 114°08'13 6.6
2016-May-11 21:22N 22°08' E 114°15'379 7.9
2016-May-09 21:32N 24°34' E 120°36'  
Track history (hours):
 
Tides and Currents Weather Stations Pressure Air Temp Water Temp Dewpoint Dewpoint Depression Visibility Wind Speed Wind Dir Waves Ship Positions

Uni-arise

Last reported at 2016-May-19 15:20 UTC. Time now 2016-May-24 17:28 UTC.
Position N 33°45' E 134°49'.

Length 165 m; draft 7.6 m.

Type: Ship (hazmat cat D). MMSI: 351608000.

Date/timePositionNaut miles runAvg speedWind from/ knotsBaromVisibWave heightAir tempDewpointWater temp
2016-May-19 15:20N 33°45' E 134°49'1316.4
2016-May-19 14:33N 33°56' E 134°56'1515.0
2016-May-19 13:33N 34°11' E 134°57'1212.5
2016-May-19 12:34N 34°23' E 135°01'1514.9
2016-May-19 11:33N 34°34' E 135°13'6 4.6
2016-May-19 10:19N 34°40' E 135°14'0 0.0
2016-May-19 09:25N 34°40' E 135°14'0 0.0
2016-May-19 08:31N 34°40' E 135°14'0 0.0
2016-May-19 07:31N 34°40' E 135°14'0 0.0
2016-May-19 06:31N 34°40' E 135°14'0 0.0
2016-May-19 05:31N 34°40' E 135°14'0 0.0
2016-May-19 04:31N 34°40' E 135°14'0 0.0
2016-May-19 03:31N 34°40' E 135°14'0 0.3
2016-May-19 02:33N 34°40' E 135°14'8 8.0
2016-May-19 01:33N 34°38' E 135°24'1 0.6
2016-May-19 00:28N 34°39' E 135°24'0 0.0
2016-May-18 23:22N 34°39' E 135°24'0 0.0
2016-May-18 22:28N 34°39' E 135°24'0 0.0
2016-May-18 21:28N 34°39' E 135°24'0 0.0
2016-May-18 20:28N 34°39' E 135°24'0 0.0
2016-May-18 19:22N 34°39' E 135°24'0 0.0
2016-May-18 18:28N 34°39' E 135°24'0 0.0
2016-May-18 17:28N 34°39' E 135°24'0 0.0
2016-May-18 16:28N 34°39' E 135°24'0 0.0
2016-May-18 15:28N 34°39' E 135°24'0 0.0
2016-May-18 14:28N 34°39' E 135°24'4 4.1
2016-May-18 13:33N 34°37' E 135°21'1414.0
2016-May-18 12:33N 34°27' E 135°08'1514.8
2016-May-18 11:34N 34°14' E 134°59'1210.8
2016-May-18 10:30N 34°03' E 134°59'  
2016-May-14 14:31N 22°51' E 119°58'1414.6
2016-May-14 13:34N 22°39' E 120°07'1111.4
2016-May-14 12:33N 22°33' E 120°18'2 0.2
2016-May-14 01:16N 22°33' E 120°20'3 4.1
2016-May-14 00:32N 22°32' E 120°17'0 0.3
2016-May-13 23:26N 22°32' E 120°17'0 0.0
2016-May-13 22:26N 22°32' E 120°17'0 0.0
2016-May-13 21:32N 22°32' E 120°17'0 0.0
2016-May-13 20:33N 22°32' E 120°17'0 0.0
2016-May-13 19:33N 22°32' E 120°17'0 0.0
2016-May-13 18:33N 22°32' E 120°17'0 0.0
2016-May-13 17:33N 22°32' E 120°17'0 0.0
2016-May-13 16:33N 22°32' E 120°17'0 0.0
2016-May-13 15:33N 22°32' E 120°17'0 0.0
2016-May-13 14:33N 22°32' E 120°17'0 0.0
2016-May-13 13:33N 22°32' E 120°17'0 0.0
2016-May-13 12:32N 22°32' E 120°17'0 0.3
2016-May-13 11:33N 22°32' E 120°16'9 9.3
2016-May-13 10:33N 22°32' E 120°06'33314.2
2016-May-12 11:06N 22°17' E 114°06'3 5.7
2016-May-12 10:33N 22°20' E 114°08'0 0.0
2016-May-12 09:33N 22°20' E 114°08'0 0.0
2016-May-12 08:33N 22°20' E 114°08'0 0.0
2016-May-12 07:33N 22°20' E 114°08'0 0.0
2016-May-12 05:33N 22°20' E 114°08'0 0.0
2016-May-12 04:33N 22°20' E 114°08'0 0.0
2016-May-12 03:33N 22°20' E 114°08'0 0.0
2016-May-12 02:33N 22°20' E 114°08'0 0.0
2016-May-12 01:30N 22°20' E 114°08'0 0.0
2016-May-12 00:33N 22°20' E 114°08'0 0.0
2016-May-11 23:21N 22°20' E 114°08'13 6.6
2016-May-11 21:22N 22°08' E 114°15'379 7.9
2016-May-09 21:32N 24°34' E 120°36'  

Dump ship's entire track history